createdAt,value
2016-11-17T00:00:14.249Z,32.91
2016-11-17T00:00:54.966Z,32.62
2016-11-17T00:01:35.649Z,33.01
2016-11-17T00:02:16.324Z,32.91
2016-11-17T00:02:57.000Z,32.91
2016-11-17T00:03:37.692Z,32.89
2016-11-17T00:04:18.372Z,32.81
2016-11-17T00:04:59.069Z,32.91
2016-11-17T00:05:39.773Z,32.81
2016-11-17T00:06:20.417Z,32.81
2016-11-17T00:07:01.088Z,32.91
2016-11-17T00:07:41.745Z,33.01
2016-11-17T00:08:22.404Z,32.91
2016-11-17T00:09:03.094Z,33.1
2016-11-17T00:09:43.729Z,32.7
2016-11-17T00:10:24.439Z,32.79
2016-11-17T00:11:05.143Z,33.01
2016-11-17T00:11:45.799Z,33.01
2016-11-17T00:12:26.490Z,32.81
2016-11-17T00:13:07.170Z,32.91
2016-11-17T00:13:47.835Z,33.01
2016-11-17T00:14:28.487Z,32.91
2016-11-17T00:15:09.187Z,32.91
2016-11-17T00:15:49.837Z,32.89
2016-11-17T00:16:30.531Z,32.89
2016-11-17T00:17:11.207Z,32.79
2016-11-17T00:17:51.919Z,32.91
2016-11-17T00:18:32.559Z,32.81
2016-11-17T00:19:13.275Z,32.91
2016-11-17T00:19:53.968Z,32.91
2016-11-17T00:20:34.636Z,32.81
2016-11-17T00:21:15.302Z,32.89
2016-11-17T00:21:55.983Z,32.79
2016-11-17T00:22:36.634Z,32.99
2016-11-17T00:23:17.293Z,32.81
2016-11-17T00:23:57.990Z,32.42
2016-11-17T00:24:38.663Z,32.31
2016-11-17T00:25:19.340Z,33.01
2016-11-17T00:26:00.027Z,32.81
2016-11-17T00:26:40.684Z,32.89
2016-11-17T00:27:21.351Z,32.89
2016-11-17T00:28:02.071Z,32.7
2016-11-17T00:28:42.761Z,32.89
2016-11-17T00:29:23.389Z,32.91
2016-11-17T00:30:04.116Z,32.71
2016-11-17T00:30:44.797Z,32.99
2016-11-17T00:31:25.469Z,32.91
2016-11-17T00:32:06.171Z,32.79
2016-11-17T00:32:46.836Z,32.89
2016-11-17T00:33:27.513Z,32.99
2016-11-17T00:34:08.213Z,32.99
2016-11-17T00:34:48.844Z,32.6
2016-11-17T00:35:29.546Z,32.91
2016-11-17T00:36:10.186Z,32.81
2016-11-17T00:36:50.856Z,32.99
2016-11-17T00:37:31.568Z,32.71
2016-11-17T00:38:12.267Z,32.7
2016-11-17T00:38:52.941Z,32.81
2016-11-17T00:39:33.635Z,33.01
2016-11-17T00:40:14.308Z,32.91
2016-11-17T00:40:55.018Z,33.01
2016-11-17T00:41:35.698Z,32.91
2016-11-17T00:42:16.374Z,33.01
2016-11-17T00:42:57.060Z,32.89
2016-11-17T00:43:37.719Z,32.71
2016-11-17T00:44:18.423Z,32.71
2016-11-17T00:44:59.109Z,32.6
2016-11-17T00:45:39.777Z,32.71
2016-11-17T00:46:20.453Z,32.81
2016-11-17T00:47:01.115Z,32.79
2016-11-17T00:47:41.834Z,32.89
2016-11-17T00:48:22.515Z,32.6
2016-11-17T00:49:03.182Z,32.52
2016-11-17T00:49:43.884Z,32.81
2016-11-17T00:50:24.525Z,32.71
2016-11-17T00:51:05.143Z,33.01
2016-11-17T00:51:45.811Z,32.7
2016-11-17T00:52:26.477Z,32.81
2016-11-17T00:53:07.127Z,33.01
2016-11-17T00:53:47.763Z,32.71
2016-11-17T00:54:28.491Z,32.79
2016-11-17T00:55:09.188Z,32.52
2016-11-17T00:55:49.861Z,32.7
2016-11-17T00:56:30.605Z,32.62
2016-11-17T00:57:11.225Z,32.62
2016-11-17T00:57:51.937Z,32.79
2016-11-17T00:58:32.653Z,32.52
2016-11-17T00:59:13.321Z,32.81
2016-11-17T00:59:53.992Z,32.79
2016-11-17T01:00:34.672Z,32.81
2016-11-17T01:01:15.365Z,32.81
2016-11-17T01:01:56.039Z,32.71
2016-11-17T01:02:36.705Z,32.71
2016-11-17T01:03:17.395Z,32.7
2016-11-17T01:03:58.116Z,32.71
2016-11-17T01:04:38.801Z,32.71
2016-11-17T01:05:19.489Z,32.71
2016-11-17T01:06:00.214Z,32.81
2016-11-17T01:06:40.888Z,32.89
2016-11-17T01:07:21.573Z,32.71
2016-11-17T01:08:02.268Z,32.71
2016-11-17T01:08:43.001Z,32.71
2016-11-17T01:09:23.669Z,32.79
2016-11-17T01:10:04.379Z,32.52
2016-11-17T01:10:45.059Z,32.81
2016-11-17T01:11:25.733Z,32.91
2016-11-17T01:12:06.428Z,32.71
2016-11-17T01:12:47.103Z,32.81
2016-11-17T01:13:27.796Z,32.89
2016-11-17T01:14:08.451Z,32.7
2016-11-17T01:14:49.100Z,32.7
2016-11-17T01:15:29.775Z,32.51
2016-11-17T01:16:10.429Z,32.81
2016-11-17T01:16:51.116Z,32.7
2016-11-17T01:17:31.791Z,32.7
2016-11-17T01:18:12.485Z,32.71
2016-11-17T01:18:53.177Z,32.91
2016-11-17T01:19:33.860Z,32.81
2016-11-17T01:20:14.546Z,32.79
2016-11-17T01:20:55.260Z,32.6
2016-11-17T01:21:35.887Z,32.79
2016-11-17T01:22:16.607Z,32.52
2016-11-17T01:22:57.278Z,32.89
2016-11-17T01:23:37.930Z,32.7
2016-11-17T01:24:18.584Z,32.51
2016-11-17T01:24:59.229Z,32.7
2016-11-17T01:25:39.912Z,32.7
2016-11-17T01:26:20.621Z,32.71
2016-11-17T01:27:01.265Z,32.52
2016-11-17T01:27:41.948Z,32.62
2016-11-17T01:28:22.641Z,32.7
2016-11-17T01:29:03.336Z,32.79
2016-11-17T01:29:44.026Z,32.7
2016-11-17T01:30:24.689Z,32.21
2016-11-17T01:31:05.422Z,32.71
2016-11-17T01:31:46.104Z,32.79
2016-11-17T01:32:26.791Z,32.7
2016-11-17T01:33:07.451Z,32.79
2016-11-17T01:33:48.120Z,32.71
2016-11-17T01:34:28.830Z,32.79
2016-11-17T01:35:09.521Z,32.81
2016-11-17T01:35:50.154Z,32.7
2016-11-17T01:36:30.871Z,32.6
2016-11-17T01:37:11.578Z,32.79
2016-11-17T01:37:52.264Z,32.81
2016-11-17T01:38:32.943Z,32.89
2016-11-17T01:39:13.653Z,32.79
2016-11-17T01:39:54.357Z,32.79
2016-11-17T01:40:35.044Z,32.89
2016-11-17T01:41:15.775Z,32.91
2016-11-17T01:41:56.410Z,32.6
2016-11-17T01:42:37.131Z,32.71
2016-11-17T01:43:17.807Z,32.81
2016-11-17T01:43:58.484Z,32.81
2016-11-17T01:44:39.195Z,32.6
2016-11-17T01:45:19.842Z,32.52
2016-11-17T01:46:00.544Z,32.79
2016-11-17T01:46:41.231Z,32.62
2016-11-17T01:47:21.925Z,32.51
2016-11-17T01:48:02.584Z,32.51
2016-11-17T01:48:43.264Z,32.52
2016-11-17T01:49:23.946Z,32.6
2016-11-17T01:50:04.621Z,32.6
2016-11-17T01:50:45.293Z,32.51
2016-11-17T01:51:25.958Z,32.51
2016-11-17T01:52:06.694Z,32.51
2016-11-17T01:52:47.349Z,32.52
2016-11-17T01:53:28.041Z,32.21
2016-11-17T01:54:08.679Z,32.6
2016-11-17T01:54:49.382Z,32.6
2016-11-17T01:55:30.033Z,32.51
2016-11-17T01:56:10.711Z,32.7
2016-11-17T01:56:51.385Z,32.6
2016-11-17T01:57:32.074Z,32.91
2016-11-17T01:58:12.798Z,32.51
2016-11-17T01:58:53.459Z,32.6
2016-11-17T01:59:34.134Z,32.7
2016-11-17T02:00:14.809Z,32.79
2016-11-17T02:00:55.463Z,32.6
2016-11-17T02:01:36.139Z,32.7
2016-11-17T02:02:16.796Z,32.41
2016-11-17T02:02:57.486Z,32.89
2016-11-17T02:03:38.150Z,32.89
2016-11-17T02:04:18.802Z,32.89
2016-11-17T02:04:59.480Z,32.51
2016-11-17T02:05:40.214Z,32.6
2016-11-17T02:06:20.898Z,32.79
2016-11-17T02:07:01.566Z,32.89
2016-11-17T02:07:42.256Z,32.41
2016-11-17T02:08:22.922Z,32.51
2016-11-17T02:09:03.584Z,32.51
2016-11-17T02:09:44.253Z,32.79
2016-11-17T02:10:24.894Z,32.6
2016-11-17T02:11:05.563Z,32.7
2016-11-17T02:11:46.231Z,32.89
2016-11-17T02:12:26.929Z,32.89
2016-11-17T02:13:07.623Z,32.51
2016-11-17T02:13:48.281Z,32.89
2016-11-17T02:14:28.957Z,32.51
2016-11-17T02:15:09.661Z,32.51
2016-11-17T02:15:50.279Z,32.6
2016-11-17T02:16:30.988Z,32.79
2016-11-17T02:17:11.678Z,32.51
2016-11-17T02:17:52.328Z,32.51
2016-11-17T02:18:33.017Z,32.51
2016-11-17T02:19:13.683Z,32.6
2016-11-17T02:19:54.384Z,32.6
2016-11-17T02:20:35.063Z,32.79
2016-11-17T02:21:15.767Z,32.41
2016-11-17T02:21:56.430Z,32.41
2016-11-17T02:22:37.092Z,32.89
2016-11-17T02:23:17.758Z,32.6
2016-11-17T02:23:58.473Z,32.79
2016-11-17T02:24:39.143Z,32.51
2016-11-17T02:25:19.857Z,32.7
2016-11-17T02:26:00.555Z,32.7
2016-11-17T02:26:41.272Z,32.7
2016-11-17T02:27:21.942Z,32.51
2016-11-17T02:28:02.655Z,32.6
2016-11-17T02:28:43.357Z,32.51
2016-11-17T02:29:24.069Z,32.79
2016-11-17T02:30:04.755Z,32.31
2016-11-17T02:30:45.432Z,32.51
2016-11-17T02:31:26.146Z,32.6
2016-11-17T02:32:06.835Z,32.51
2016-11-17T02:32:47.520Z,32.89
2016-11-17T02:33:28.169Z,32.89
2016-11-17T02:34:08.833Z,32.6
2016-11-17T02:34:49.483Z,32.79
2016-11-17T02:35:30.154Z,32.7
2016-11-17T02:36:10.815Z,32.41
2016-11-17T02:36:51.467Z,32.6
2016-11-17T02:37:32.154Z,32.6
2016-11-17T02:38:12.871Z,32.21
2016-11-17T02:38:53.542Z,32.31
2016-11-17T02:39:34.230Z,32.79
2016-11-17T02:40:14.929Z,32.51
2016-11-17T02:40:55.609Z,32.51
2016-11-17T02:41:36.279Z,32.31
2016-11-17T02:42:16.946Z,32.31
2016-11-17T02:42:57.639Z,32.7
2016-11-17T02:43:38.368Z,32.79
2016-11-17T02:44:19.080Z,32.51
2016-11-17T02:44:59.780Z,32.51
2016-11-17T02:45:40.457Z,32.6
2016-11-17T02:46:21.117Z,32.6
2016-11-17T02:47:01.854Z,32.51
2016-11-17T02:47:42.541Z,32.41
2016-11-17T02:48:23.232Z,32.6
2016-11-17T02:49:04.562Z,32.6
2016-11-17T02:49:45.800Z,32.6
2016-11-17T02:50:26.483Z,32.51
2016-11-17T02:51:07.173Z,32.41
2016-11-17T02:51:47.875Z,32.7
2016-11-17T02:52:28.527Z,32.51
2016-11-17T02:53:09.218Z,32.6
2016-11-17T02:53:49.962Z,32.51
2016-11-17T02:54:30.627Z,32.51
2016-11-17T02:55:11.300Z,32.51
2016-11-17T02:55:51.995Z,32.51
2016-11-17T02:56:32.689Z,32.6
2016-11-17T02:57:13.372Z,32.41
2016-11-17T02:57:54.058Z,32.51
2016-11-17T02:58:34.730Z,32.41
2016-11-17T02:59:15.458Z,32.41
2016-11-17T02:59:56.159Z,32.51
2016-11-17T03:00:36.789Z,32.6
2016-11-17T03:01:17.483Z,32.12
2016-11-17T03:01:58.201Z,32.6
2016-11-17T03:02:38.843Z,32.51
2016-11-17T03:03:19.504Z,32.7
2016-11-17T03:04:00.192Z,32.51
2016-11-17T03:04:40.876Z,32.51
2016-11-17T03:05:21.559Z,32.51
2016-11-17T03:06:02.261Z,32.51
2016-11-17T03:06:42.914Z,32.6
2016-11-17T03:07:23.584Z,32.6
2016-11-17T03:08:04.276Z,32.51
2016-11-17T03:08:44.956Z,32.79
2016-11-17T03:09:25.690Z,32.6
2016-11-17T03:10:06.376Z,32.51
2016-11-17T03:10:47.057Z,32.41
2016-11-17T03:11:27.756Z,32.6
2016-11-17T03:12:08.464Z,32.31
2016-11-17T03:12:49.157Z,32.41
2016-11-17T03:13:29.858Z,32.79
2016-11-17T03:14:10.548Z,32.31
2016-11-17T03:14:51.203Z,32.41
2016-11-17T03:15:31.887Z,32.51
2016-11-17T03:16:12.580Z,32.51
2016-11-17T03:16:53.283Z,32.51
2016-11-17T03:17:33.959Z,32.41
2016-11-17T03:18:14.656Z,32.6
2016-11-17T03:18:55.316Z,32.89
2016-11-17T03:19:36.004Z,32.51
2016-11-17T03:20:16.676Z,32.51
2016-11-17T03:20:57.317Z,32.79
2016-11-17T03:21:38.038Z,32.51
2016-11-17T03:22:18.737Z,32.51
2016-11-17T03:22:59.399Z,32.6
2016-11-17T03:23:40.081Z,32.51
2016-11-17T03:24:20.713Z,32.6
2016-11-17T03:25:01.454Z,32.6
2016-11-17T03:25:42.136Z,32.6
2016-11-17T03:26:22.807Z,32.6
2016-11-17T03:27:03.459Z,32.51
2016-11-17T03:27:44.191Z,32.51
2016-11-17T03:28:24.854Z,32.41
2016-11-17T03:29:05.538Z,32.51
2016-11-17T03:29:46.274Z,32.6
2016-11-17T03:30:26.961Z,32.41
2016-11-17T03:31:07.656Z,32.41
2016-11-17T03:31:48.372Z,32.51
2016-11-17T03:32:29.057Z,32.41
2016-11-17T03:33:09.725Z,32.51
2016-11-17T03:33:50.391Z,32.6
2016-11-17T03:34:31.057Z,32.41
2016-11-17T03:35:11.698Z,32.51
2016-11-17T03:35:52.362Z,32.41
2016-11-17T03:36:33.045Z,32.51
2016-11-17T03:37:13.711Z,32.51
2016-11-17T03:37:54.403Z,32.51
2016-11-17T03:38:35.084Z,32.41
2016-11-17T03:39:15.761Z,32.51
2016-11-17T03:39:56.448Z,32.6
2016-11-17T03:40:37.188Z,32.6
2016-11-17T03:41:17.863Z,32.51
2016-11-17T03:41:58.540Z,32.41
2016-11-17T03:42:39.231Z,32.41
2016-11-17T03:43:19.895Z,32.51
2016-11-17T03:44:00.608Z,32.51
2016-11-17T03:44:41.272Z,32.51
2016-11-17T03:45:22.011Z,32.6
2016-11-17T03:46:02.732Z,32.6
2016-11-17T03:46:43.357Z,32.6
2016-11-17T03:47:24.067Z,32.51
2016-11-17T03:48:04.700Z,32.6
2016-11-17T03:48:45.357Z,32.41
2016-11-17T03:49:26.056Z,32.6
2016-11-17T03:50:06.741Z,32.79
2016-11-17T03:50:47.460Z,32.51
2016-11-17T03:51:28.149Z,32.51
2016-11-17T03:52:08.854Z,32.51
2016-11-17T03:52:49.523Z,32.7
2016-11-17T03:53:30.191Z,32.79
2016-11-17T03:54:10.837Z,32.79
2016-11-17T03:54:51.502Z,32.7
2016-11-17T03:55:32.187Z,32.51
2016-11-17T03:56:12.855Z,32.6
2016-11-17T03:56:53.496Z,32.6
2016-11-17T03:57:34.175Z,32.41
2016-11-17T03:58:14.865Z,32.51
2016-11-17T03:58:55.536Z,32.51
2016-11-17T03:59:36.218Z,32.51
2016-11-17T04:00:16.920Z,32.51
2016-11-17T04:00:57.637Z,32.6
2016-11-17T04:01:38.306Z,32.51
2016-11-17T04:02:18.993Z,32.51
2016-11-17T04:02:59.684Z,32.41
2016-11-17T04:03:40.386Z,32.51
2016-11-17T04:04:21.108Z,32.51
2016-11-17T04:05:01.802Z,32.79
2016-11-17T04:05:42.466Z,32.51
2016-11-17T04:06:23.125Z,32.6
2016-11-17T04:07:03.791Z,32.79
2016-11-17T04:07:44.456Z,32.51
2016-11-17T04:08:25.139Z,32.51
2016-11-17T04:09:05.827Z,32.6
2016-11-17T04:09:46.540Z,32.41
2016-11-17T04:10:27.249Z,32.7
2016-11-17T04:11:07.957Z,32.89
2016-11-17T04:11:48.635Z,32.41
2016-11-17T04:12:29.292Z,32.7
2016-11-17T04:13:09.944Z,32.79
2016-11-17T04:13:50.649Z,32.51
2016-11-17T04:14:31.347Z,32.41
2016-11-17T04:15:12.055Z,32.6
2016-11-17T04:15:52.712Z,32.31
2016-11-17T04:16:33.391Z,32.6
2016-11-17T04:17:14.107Z,32.79
2016-11-17T04:17:54.802Z,32.51
2016-11-17T04:18:35.478Z,32.51
2016-11-17T04:19:16.152Z,32.6
2016-11-17T04:19:56.843Z,32.51
2016-11-17T04:20:37.512Z,32.51
2016-11-17T04:21:18.225Z,32.6
2016-11-17T04:21:58.925Z,32.7
2016-11-17T04:22:39.605Z,32.51
2016-11-17T04:23:20.287Z,32.51
2016-11-17T04:24:00.954Z,32.31
2016-11-17T04:24:41.627Z,32.6
2016-11-17T04:25:22.264Z,32.51
2016-11-17T04:26:02.945Z,32.51
2016-11-17T04:26:43.632Z,32.51
2016-11-17T04:27:24.299Z,32.7
2016-11-17T04:28:04.978Z,32.41
2016-11-17T04:28:45.629Z,32.51
2016-11-17T04:29:26.285Z,32.89
2016-11-17T04:30:06.967Z,32.6
2016-11-17T04:30:47.678Z,32.79
2016-11-17T04:31:28.369Z,32.89
2016-11-17T04:32:09.041Z,32.31
2016-11-17T04:32:50.579Z,32.51
2016-11-17T04:33:31.247Z,32.51
2016-11-17T04:34:11.899Z,32.41
2016-11-17T04:34:52.552Z,32.6
2016-11-17T04:35:33.227Z,32.51
2016-11-17T04:36:13.874Z,32.6
2016-11-17T04:36:54.568Z,32.79
2016-11-17T04:37:35.181Z,32.41
2016-11-17T04:38:15.837Z,32.51
2016-11-17T04:38:56.532Z,32.51
2016-11-17T04:39:37.219Z,32.41
2016-11-17T04:40:17.897Z,32.41
2016-11-17T04:40:58.557Z,32.51
2016-11-17T04:41:39.746Z,32.41
2016-11-17T04:42:19.907Z,32.51
2016-11-17T04:43:00.586Z,32.79
2016-11-17T04:43:41.264Z,32.6
2016-11-17T04:44:21.970Z,32.6
2016-11-17T04:45:02.607Z,32.79
2016-11-17T04:45:43.278Z,32.7
2016-11-17T04:46:24.016Z,32.89
2016-11-17T04:47:04.729Z,32.79
2016-11-17T04:47:45.438Z,32.41
2016-11-17T04:48:26.111Z,32.89
2016-11-17T04:49:06.821Z,32.79
2016-11-17T04:49:47.453Z,32.89
2016-11-17T04:50:28.097Z,32.6
2016-11-17T04:51:08.771Z,32.7
2016-11-17T04:51:49.452Z,32.7
2016-11-17T04:52:30.100Z,32.6
2016-11-17T04:53:10.747Z,32.41
2016-11-17T04:53:51.438Z,32.51
2016-11-17T04:54:32.133Z,32.51
2016-11-17T04:55:12.780Z,32.51
2016-11-17T04:55:53.472Z,32.51
2016-11-17T04:56:34.167Z,32.79
2016-11-17T04:57:14.835Z,32.51
2016-11-17T04:57:55.520Z,32.51
2016-11-17T04:58:36.181Z,32.79
2016-11-17T04:59:16.861Z,32.79
2016-11-17T04:59:57.517Z,32.6
2016-11-17T05:00:38.198Z,32.79
2016-11-17T05:01:18.913Z,32.6
2016-11-17T05:01:59.595Z,32.51
2016-11-17T05:02:40.240Z,32.6
2016-11-17T05:03:20.863Z,32.6
2016-11-17T05:04:01.570Z,32.6
2016-11-17T05:04:42.230Z,32.6
2016-11-17T05:05:22.893Z,32.6
2016-11-17T05:06:03.613Z,32.51
2016-11-17T05:06:44.297Z,32.41
2016-11-17T05:07:24.990Z,32.79
2016-11-17T05:08:05.690Z,32.79
2016-11-17T05:08:46.358Z,32.7
2016-11-17T05:09:26.998Z,32.79
2016-11-17T05:10:07.710Z,32.31
2016-11-17T05:10:48.370Z,32.41
2016-11-17T05:11:29.040Z,32.51
2016-11-17T05:12:09.696Z,32.6
2016-11-17T05:12:50.397Z,32.6
2016-11-17T05:13:31.065Z,32.6
2016-11-17T05:14:11.746Z,32.51
2016-11-17T05:14:52.467Z,32.51
2016-11-17T05:15:33.157Z,32.7
2016-11-17T05:16:13.853Z,32.31
2016-11-17T05:16:54.569Z,32.7
2016-11-17T05:17:35.292Z,32.79
2016-11-17T05:18:15.937Z,32.89
2016-11-17T05:18:56.624Z,32.51
2016-11-17T05:19:38.280Z,32.51
2016-11-17T05:20:18.034Z,32.6
2016-11-17T05:20:58.750Z,32.79
2016-11-17T05:21:39.434Z,32.51
2016-11-17T05:22:20.156Z,32.7
2016-11-17T05:23:00.868Z,32.6
2016-11-17T05:23:41.545Z,32.6
2016-11-17T05:24:22.232Z,32.7
2016-11-17T05:25:02.888Z,32.31
2016-11-17T05:25:43.583Z,32.79
2016-11-17T05:26:24.285Z,32.7
2016-11-17T05:27:04.958Z,32.7
2016-11-17T05:27:45.676Z,32.79
2016-11-17T05:28:26.365Z,32.51
2016-11-17T05:29:06.992Z,32.51
2016-11-17T05:29:47.658Z,32.6
2016-11-17T05:30:28.336Z,32.41
2016-11-17T05:31:09.007Z,32.6
2016-11-17T05:31:49.689Z,32.79
2016-11-17T05:32:30.359Z,32.7
2016-11-17T05:33:11.042Z,32.51
2016-11-17T05:33:51.759Z,32.51
2016-11-17T05:34:32.446Z,32.51
2016-11-17T05:35:13.104Z,32.6
2016-11-17T05:35:53.767Z,32.51
2016-11-17T05:36:34.483Z,32.6
2016-11-17T05:37:15.149Z,32.7
2016-11-17T05:37:55.856Z,32.89
2016-11-17T05:38:36.555Z,32.51
2016-11-17T05:39:17.278Z,32.79
2016-11-17T05:39:57.901Z,32.41
2016-11-17T05:40:38.558Z,32.79
2016-11-17T05:41:19.202Z,32.78
2016-11-17T05:41:59.903Z,32.41
2016-11-17T05:42:40.602Z,32.79
2016-11-17T05:43:21.296Z,32.7
2016-11-17T05:44:01.972Z,32.7
2016-11-17T05:44:42.651Z,32.7
2016-11-17T05:45:23.325Z,32.7
2016-11-17T05:46:04.023Z,32.89
2016-11-17T05:46:44.672Z,32.89
2016-11-17T05:47:25.379Z,32.89
2016-11-17T05:48:06.013Z,32.6
2016-11-17T05:48:46.685Z,32.79
2016-11-17T05:49:27.365Z,32.79
2016-11-17T05:50:08.073Z,32.41
2016-11-17T05:50:48.745Z,32.6
2016-11-17T05:51:29.452Z,32.79
2016-11-17T05:52:10.162Z,32.51
2016-11-17T05:52:50.847Z,32.41
2016-11-17T05:53:31.505Z,32.79
2016-11-17T05:54:12.189Z,32.79
2016-11-17T05:54:52.854Z,32.79
2016-11-17T05:55:33.527Z,32.89
2016-11-17T05:56:14.184Z,32.7
2016-11-17T05:56:54.866Z,32.68
2016-11-17T05:57:35.586Z,32.89
2016-11-17T05:58:16.241Z,32.6
2016-11-17T05:58:56.886Z,32.51
2016-11-17T05:59:37.607Z,32.41
2016-11-17T06:00:18.273Z,32.51
2016-11-17T06:00:58.999Z,32.51
2016-11-17T06:01:39.656Z,32.6
2016-11-17T06:02:20.321Z,32.7
2016-11-17T06:03:00.985Z,32.7
2016-11-17T06:03:41.713Z,32.79
2016-11-17T06:04:22.413Z,32.6
2016-11-17T06:05:03.110Z,32.51
2016-11-17T06:05:43.761Z,32.79
2016-11-17T06:06:24.516Z,32.51
2016-11-17T06:07:05.198Z,32.7
2016-11-17T06:07:45.886Z,32.31
2016-11-17T06:08:26.535Z,32.7
2016-11-17T06:09:07.238Z,32.79
2016-11-17T06:09:47.922Z,32.79
2016-11-17T06:10:28.631Z,32.89
2016-11-17T06:11:09.270Z,32.51
2016-11-17T06:11:49.957Z,32.7
2016-11-17T06:12:30.626Z,32.79
2016-11-17T06:13:11.271Z,32.7
2016-11-17T06:13:51.933Z,32.51
2016-11-17T06:14:32.616Z,32.79
2016-11-17T06:15:13.247Z,32.51
2016-11-17T06:15:53.922Z,32.79
2016-11-17T06:16:34.611Z,32.6
2016-11-17T06:17:15.271Z,32.41
2016-11-17T06:17:55.938Z,32.79
2016-11-17T06:18:36.604Z,32.7
2016-11-17T06:19:17.270Z,32.51
2016-11-17T06:19:57.927Z,32.79
2016-11-17T06:20:38.590Z,32.51
2016-11-17T06:21:19.252Z,32.51
2016-11-17T06:21:59.949Z,32.79
2016-11-17T06:22:40.611Z,32.51
2016-11-17T06:23:21.278Z,32.6
2016-11-17T06:24:01.992Z,32.89
2016-11-17T06:24:42.685Z,32.6
2016-11-17T06:25:23.347Z,32.79
2016-11-17T06:26:04.022Z,32.79
2016-11-17T06:26:44.704Z,32.7
2016-11-17T06:27:25.394Z,32.51
2016-11-17T06:28:06.073Z,32.41
2016-11-17T06:28:46.732Z,32.79
2016-11-17T06:29:27.402Z,32.79
2016-11-17T06:30:08.045Z,32.79
2016-11-17T06:30:48.745Z,32.79
2016-11-17T06:31:29.390Z,32.6
2016-11-17T06:32:10.052Z,32.79
2016-11-17T06:32:50.722Z,32.6
2016-11-17T06:33:31.403Z,32.7
2016-11-17T06:34:12.102Z,32.51
2016-11-17T06:34:52.776Z,32.6
2016-11-17T06:35:33.443Z,32.79
2016-11-17T06:36:14.125Z,32.7
2016-11-17T06:36:54.817Z,32.7
2016-11-17T06:37:35.542Z,32.79
2016-11-17T06:38:16.215Z,32.7
2016-11-17T06:38:56.877Z,32.6
2016-11-17T06:39:37.512Z,32.7
2016-11-17T06:40:18.147Z,32.7
2016-11-17T06:40:58.816Z,32.7
2016-11-17T06:41:39.471Z,32.51
2016-11-17T06:42:20.174Z,32.51
2016-11-17T06:43:00.830Z,32.7
2016-11-17T06:43:41.504Z,32.89
2016-11-17T06:44:22.195Z,32.7
2016-11-17T06:45:02.858Z,32.6
2016-11-17T06:45:43.573Z,32.6
2016-11-17T06:46:24.270Z,32.7
2016-11-17T06:47:04.923Z,32.6
2016-11-17T06:47:45.617Z,32.79
2016-11-17T06:48:26.309Z,32.89
2016-11-17T06:49:06.937Z,32.41
2016-11-17T06:49:47.623Z,32.79
2016-11-17T06:50:28.313Z,32.6
2016-11-17T06:51:08.996Z,32.7
2016-11-17T06:51:49.690Z,32.89
2016-11-17T06:52:30.369Z,32.6
2016-11-17T06:53:11.053Z,32.7
2016-11-17T06:53:51.697Z,32.51
2016-11-17T06:54:32.415Z,32.79
2016-11-17T06:55:13.146Z,32.79
2016-11-17T06:55:53.831Z,32.79
2016-11-17T06:56:34.553Z,32.79
2016-11-17T06:57:15.239Z,32.41
2016-11-17T06:57:55.923Z,32.79
2016-11-17T06:58:36.630Z,32.7
2016-11-17T06:59:17.315Z,32.89
2016-11-17T06:59:57.986Z,32.99
2016-11-17T07:00:38.690Z,32.79
2016-11-17T07:01:19.364Z,32.89
2016-11-17T07:01:59.998Z,32.7
2016-11-17T07:02:40.635Z,32.6
2016-11-17T07:03:21.336Z,32.89
2016-11-17T07:04:01.989Z,32.99
2016-11-17T07:04:42.712Z,32.89
2016-11-17T07:05:23.472Z,32.7
2016-11-17T07:06:04.194Z,32.89
2016-11-17T07:06:44.988Z,32.99
2016-11-17T07:07:25.777Z,32.89
2016-11-17T07:08:06.559Z,32.89
2016-11-17T07:08:47.347Z,32.89
2016-11-17T07:09:28.059Z,32.79
2016-11-17T07:10:08.842Z,32.79
2016-11-17T07:10:49.635Z,32.89
2016-11-17T07:11:30.412Z,32.89
2016-11-17T07:12:11.160Z,32.89
2016-11-17T07:12:51.898Z,32.7
2016-11-17T07:13:32.648Z,32.89
2016-11-17T07:14:13.400Z,32.79
2016-11-17T07:14:54.135Z,32.89
2016-11-17T07:15:34.875Z,32.89
2016-11-17T07:16:15.582Z,32.79
2016-11-17T07:16:56.355Z,32.89
2016-11-17T07:17:37.152Z,32.89
2016-11-17T07:18:17.952Z,32.89
2016-11-17T07:18:58.740Z,32.89
2016-11-17T07:19:39.533Z,32.7
2016-11-17T07:20:20.323Z,32.6
2016-11-17T07:21:01.096Z,32.51
2016-11-17T07:21:41.825Z,32.51
2016-11-17T07:22:22.592Z,32.31
2016-11-17T07:23:03.330Z,32.51
2016-11-17T07:23:44.085Z,32.21
2016-11-17T07:24:24.888Z,32.41
2016-11-17T07:25:05.636Z,31.83
2016-11-17T07:25:46.412Z,32.23
2016-11-17T07:26:27.166Z,32.23
2016-11-17T07:27:07.938Z,31.83
2016-11-17T07:27:48.750Z,32.41
2016-11-17T07:28:29.540Z,32.02
2016-11-17T07:29:10.316Z,31.94
2016-11-17T07:29:51.098Z,32.04
2016-11-17T07:30:31.860Z,31.65
2016-11-17T07:31:12.630Z,31.63
2016-11-17T07:31:53.374Z,31.94
2016-11-17T07:32:34.223Z,31.56
2016-11-17T07:33:14.935Z,31.84
2016-11-17T07:33:55.712Z,32.04
2016-11-17T07:34:36.438Z,31.84
2016-11-17T07:35:17.170Z,31.56
2016-11-17T07:35:57.833Z,31.65
2016-11-17T07:36:38.486Z,32.04
2016-11-17T07:37:19.166Z,31.74
2016-11-17T07:37:59.806Z,31.65
2016-11-17T07:38:40.482Z,31.74
2016-11-17T07:39:21.200Z,31.07
2016-11-17T07:40:01.860Z,31.16
2016-11-17T07:40:42.545Z,31.46
2016-11-17T07:41:23.238Z,31.36
2016-11-17T07:42:03.923Z,31.94
2016-11-17T07:42:44.608Z,31.07
2016-11-17T07:43:25.376Z,31.46
2016-11-17T07:44:06.012Z,31.65
2016-11-17T07:44:46.715Z,31.26
2016-11-17T07:45:27.398Z,31.56
2016-11-17T07:46:08.138Z,31.74
2016-11-17T07:46:48.835Z,31.26
2016-11-17T07:47:29.538Z,31.46
2016-11-17T07:48:10.270Z,31.26
2016-11-17T07:48:50.903Z,31.56
2016-11-17T07:49:31.612Z,31.56
2016-11-17T07:50:12.303Z,31.36
2016-11-17T07:50:53.015Z,31.94
2016-11-17T07:51:33.702Z,31.94
2016-11-17T07:52:14.368Z,32.06
2016-11-17T07:52:55.077Z,31.26
2016-11-17T07:53:35.781Z,31.56
2016-11-17T07:54:16.516Z,31.47
2016-11-17T07:54:57.209Z,31.46
2016-11-17T07:55:37.896Z,31.76
2016-11-17T07:56:18.610Z,31.67
2016-11-17T07:56:59.274Z,31.28
2016-11-17T07:57:39.935Z,31.26
2016-11-17T07:58:20.601Z,31.37
2016-11-17T07:59:01.297Z,31.56
2016-11-17T07:59:41.955Z,31.37
2016-11-17T08:00:22.617Z,31.37
2016-11-17T08:01:03.265Z,31.28
2016-11-17T08:01:43.961Z,31.37
2016-11-17T08:02:24.638Z,31.28
2016-11-17T08:03:05.342Z,31.37
2016-11-17T08:03:46.055Z,31.28
2016-11-17T08:04:26.756Z,31.28
2016-11-17T08:05:07.483Z,31.47
2016-11-17T08:05:48.171Z,31.76
2016-11-17T08:06:28.875Z,31.47
2016-11-17T08:07:09.528Z,31.28
2016-11-17T08:07:50.219Z,31.37
2016-11-17T08:08:31.137Z,31.47
2016-11-17T08:09:11.522Z,31.28
2016-11-17T08:09:52.241Z,31.47
2016-11-17T08:10:32.943Z,31.28
2016-11-17T08:11:13.609Z,31.28
2016-11-17T08:11:54.348Z,31.37
2016-11-17T08:12:35.032Z,31.37
2016-11-17T08:13:15.710Z,31.28
2016-11-17T08:13:56.407Z,31.37
2016-11-17T08:14:37.071Z,31.67
2016-11-17T08:15:17.815Z,31.37
2016-11-17T08:15:58.531Z,31.09
2016-11-17T08:16:39.233Z,31.57
2016-11-17T08:17:19.899Z,31.76
2016-11-17T08:18:00.571Z,31.86
2016-11-17T08:18:41.273Z,31.28
2016-11-17T08:19:21.960Z,31.28
2016-11-17T08:20:02.645Z,31.67
2016-11-17T08:20:43.296Z,31.37
2016-11-17T08:21:23.977Z,31.18
2016-11-17T08:22:04.690Z,31.76
2016-11-17T08:22:45.387Z,31.37
2016-11-17T08:23:26.049Z,31.18
2016-11-17T08:24:06.698Z,31.67
2016-11-17T08:24:47.431Z,31.47
2016-11-17T08:25:28.127Z,31.37
2016-11-17T08:26:08.828Z,31.47
2016-11-17T08:26:49.519Z,31.37
2016-11-17T08:27:30.177Z,31.37
2016-11-17T08:28:10.899Z,31.37
2016-11-17T08:28:51.618Z,32.06
2016-11-17T08:29:32.328Z,31.18
2016-11-17T08:30:13.104Z,31.18
2016-11-17T08:30:53.807Z,31.37
2016-11-17T08:31:34.576Z,31.87
2016-11-17T08:32:15.346Z,31.67
2016-11-17T08:32:56.041Z,31.29
2016-11-17T08:33:36.807Z,31.78
2016-11-17T08:34:17.486Z,31.57
2016-11-17T08:34:58.241Z,31.18
2016-11-17T08:35:38.878Z,31.09
2016-11-17T08:36:19.573Z,31.87
2016-11-17T08:37:00.261Z,31.29
2016-11-17T08:37:40.937Z,31.67
2016-11-17T08:38:21.646Z,31.29
2016-11-17T08:39:02.359Z,31.86
2016-11-17T08:39:43.040Z,31.87
2016-11-17T08:40:23.689Z,31.87
2016-11-17T08:41:04.399Z,31.97
2016-11-17T08:41:45.108Z,31.97
2016-11-17T08:42:25.764Z,31.96
2016-11-17T08:43:06.447Z,31.78
2016-11-17T08:43:47.119Z,31.97
2016-11-17T08:44:27.850Z,32.07
2016-11-17T08:45:08.549Z,32.07
2016-11-17T08:45:49.242Z,31.87
2016-11-17T08:46:29.956Z,31.49
2016-11-17T08:47:10.648Z,31.97
2016-11-17T08:47:51.349Z,31.97